Time;durP1;ratioP1;P1;durP2;ratioP2;P2;SDS_P1;SDS_P2;PMS_P1;PMS_P2;Temp;Humidity;BMP_temperature;BMP_pressure;BME280_temperature;BME280_humidity;BME280_pressure;Samples;Min_cycle;Max_cycle;Signal;HPM_P1;HPM_P2
2021/06/26 00:01:45;;;;;;;3.70;3.47;;;17.40;99.90;;;;;;5010578;28;20106;-67
2021/06/26 00:04:13;;;;;;;4.70;4.22;;;17.40;99.90;;;;;;5009920;28;20491;-69
2021/06/26 00:06:40;;;;;;;3.85;3.55;;;17.40;99.90;;;;;;5009213;28;21169;-67
2021/06/26 00:09:07;;;;;;;4.35;3.42;;;17.30;99.90;;;;;;5008978;28;20155;-68
2021/06/26 00:11:34;;;;;;;3.88;3.58;;;17.30;99.90;;;;;;5009941;28;20049;-68
2021/06/26 00:14:03;;;;;;;4.68;4.28;;;17.30;99.90;;;;;;5008561;28;20080;-67
2021/06/26 00:16:30;;;;;;;4.43;4.03;;;17.30;99.90;;;;;;5007765;28;20071;-68
2021/06/26 00:18:57;;;;;;;4.22;3.92;;;17.30;99.90;;;;;;5009093;28;20484;-69
2021/06/26 00:21:24;;;;;;;4.63;4.20;;;17.30;99.90;;;;;;5009848;28;20060;-66
2021/06/26 00:23:51;;;;;;;4.32;3.97;;;17.30;99.90;;;;;;5006059;28;20427;-66
2021/06/26 00:26:18;;;;;;;3.78;3.47;;;17.30;99.90;;;;;;5010523;28;20663;-68
2021/06/26 00:28:46;;;;;;;4.05;3.65;;;17.30;99.90;;;;;;5011149;28;20060;-68
2021/06/26 00:31:13;;;;;;;4.03;3.65;;;17.30;99.90;;;;;;5025184;28;20160;-68
2021/06/26 00:33:40;;;;;;;4.10;3.80;;;17.30;99.90;;;;;;5011343;28;20388;-67
2021/06/26 00:36:07;;;;;;;3.85;3.55;;;17.30;99.90;;;;;;5009865;28;20072;-66
2021/06/26 00:38:34;;;;;;;3.60;3.30;;;17.30;99.90;;;;;;5009908;28;20045;-68
2021/06/26 00:41:02;;;;;;;4.35;4.05;;;17.30;99.90;;;;;;5010962;28;20131;-70
2021/06/26 00:43:29;;;;;;;3.55;3.20;;;17.30;99.90;;;;;;5011486;28;20150;-67
2021/06/26 00:46:00;;;;;;;3.72;3.42;;;17.30;99.90;;;;;;5009721;28;20049;-67
2021/06/26 00:48:28;;;;;;;3.80;3.50;;;17.30;99.90;;;;;;5011716;28;20412;-69
2021/06/26 00:50:55;;;;;;;4.05;3.75;;;17.30;99.90;;;;;;5011349;28;20057;-67
2021/06/26 00:53:22;;;;;;;4.50;4.10;;;17.30;99.90;;;;;;5027533;28;20427;-67
2021/06/26 00:55:52;;;;;;;3.95;3.65;;;17.30;99.90;;;;;;5009915;28;20386;-67
2021/06/26 00:58:23;;;;;;;5.10;3.42;;;17.30;99.90;;;;;;5010795;28;20053;-67
2021/06/26 01:00:52;;;;;;;4.07;3.78;;;17.30;99.90;;;;;;5011414;28;21592;-65
2021/06/26 01:03:19;;;;;;;4.10;3.70;;;17.30;99.90;;;;;;5010375;28;20064;-70
2021/06/26 01:05:47;;;;;;;3.38;3.10;;;17.30;99.90;;;;;;5011311;28;20181;-66
2021/06/26 01:08:14;;;;;;;3.60;3.30;;;17.30;99.90;;;;;;5008865;28;20100;-66
2021/06/26 01:10:42;;;;;;;3.97;3.67;;;17.20;99.90;;;;;;5011575;28;20053;-66
2021/06/26 01:13:09;;;;;;;4.00;3.45;;;17.30;99.90;;;;;;5010377;28;21084;-67
2021/06/26 01:15:36;;;;;;;4.75;3.78;;;17.20;99.90;;;;;;5010889;28;20045;-67
2021/06/26 01:18:04;;;;;;;3.30;3.10;;;17.20;99.90;;;;;;5007414;28;20699;-68
2021/06/26 01:20:31;;;;;;;3.10;2.90;;;17.20;99.90;;;;;;5010584;28;20140;-69
2021/06/26 01:22:59;;;;;;;8.05;5.18;;;17.20;99.90;;;;;;5009543;28;20049;-70
2021/06/26 01:25:28;;;;;;;4.32;2.80;;;17.20;99.90;;;;;;5009194;28;20107;-69
2021/06/26 01:27:58;;;;;;;3.75;3.45;;;17.20;99.90;;;;;;5008031;28;20049;-67
2021/06/26 01:30:29;;;;;;;4.50;4.15;;;17.20;99.90;;;;;;5009204;28;20142;-68
2021/06/26 01:32:58;;;;;;;3.58;3.38;;;17.20;99.90;;;;;;5009030;28;20104;-68
2021/06/26 01:35:26;;;;;;;3.83;3.47;;;17.30;99.90;;;;;;5009654;28;20080;-67
2021/06/26 01:37:54;;;;;;;4.50;4.18;;;17.20;99.90;;;;;;5006923;28;20131;-67
2021/06/26 01:40:24;;;;;;;4.15;3.85;;;17.30;99.90;;;;;;5009214;28;20123;-66
2021/06/26 01:42:53;;;;;;;3.83;3.10;;;17.20;99.90;;;;;;5008731;28;20064;-68
2021/06/26 01:45:21;;;;;;;3.95;3.65;;;17.20;99.90;;;;;;5008595;28;20053;-69
2021/06/26 01:47:53;;;;;;;2.92;2.72;;;17.30;99.90;;;;;;5008579;28;20045;-66
2021/06/26 01:50:22;;;;;;;4.00;3.70;;;17.30;99.90;;;;;;5007632;28;20994;-68
2021/06/26 01:52:49;;;;;;;3.60;3.33;;;17.30;99.90;;;;;;5007359;28;20057;-68
2021/06/26 01:55:19;;;;;;;3.28;2.97;;;17.30;99.90;;;;;;5009106;28;20048;-70
2021/06/26 01:57:47;;;;;;;3.90;3.60;;;17.30;99.90;;;;;;5008357;28;20081;-66
2021/06/26 02:00:16;;;;;;;3.72;3.42;;;17.30;99.90;;;;;;5005616;28;20537;-67
2021/06/26 02:02:43;;;;;;;4.60;3.22;;;17.30;99.90;;;;;;5008829;28;20524;-70
2021/06/26 02:05:12;;;;;;;2.92;2.72;;;17.30;99.90;;;;;;5009719;28;20092;-68
2021/06/26 02:07:39;;;;;;;3.17;2.97;;;17.30;99.90;;;;;;5009020;28;20042;-68
2021/06/26 02:10:07;;;;;;;3.20;3.00;;;17.30;99.90;;;;;;5007277;28;20503;-69
2021/06/26 02:12:34;;;;;;;4.95;3.13;;;17.30;99.90;;;;;;5009178;28;21595;-68
2021/06/26 02:15:06;;;;;;;3.00;2.80;;;17.30;99.90;;;;;;5009364;28;20558;-67
2021/06/26 02:17:33;;;;;;;3.38;3.08;;;17.20;99.90;;;;;;5008700;28;20136;-70
2021/06/26 02:20:01;;;;;;;4.00;3.67;;;17.30;99.90;;;;;;5007019;28;20520;-68
2021/06/26 02:22:27;;;;;;;4.93;3.42;;;17.30;99.90;;;;;;5006714;28;20168;-66
2021/06/26 02:24:54;;;;;;;4.22;3.88;;;17.30;99.90;;;;;;5008770;28;20061;-68
2021/06/26 02:27:21;;;;;;;3.40;3.10;;;17.30;99.90;;;;;;5008374;28;20689;-66
2021/06/26 02:29:48;;;;;;;4.53;3.20;;;17.30;99.90;;;;;;5007417;28;20491;-68
2021/06/26 02:32:15;;;;;;;3.83;3.53;;;17.30;99.90;;;;;;5006569;28;20107;-68
2021/06/26 02:34:42;;;;;;;3.20;2.90;;;17.30;99.90;;;;;;5007620;28;20054;-68
2021/06/26 02:37:09;;;;;;;8.50;3.63;;;17.30;99.90;;;;;;5008196;28;20081;-68
2021/06/26 02:39:36;;;;;;;3.40;3.10;;;17.30;99.90;;;;;;5007515;28;20095;-68
2021/06/26 02:42:03;;;;;;;3.10;2.90;;;17.30;99.90;;;;;;5006254;28;20397;-67
2021/06/26 02:44:30;;;;;;;3.30;3.00;;;17.30;99.90;;;;;;5007830;28;20408;-69
2021/06/26 02:46:57;;;;;;;3.80;3.50;;;17.30;99.90;;;;;;5008482;28;20133;-66
2021/06/26 02:49:24;;;;;;;6.45;3.55;;;17.30;99.90;;;;;;5006990;28;20041;-68
2021/06/26 02:51:51;;;;;;;2.70;2.50;;;17.40;99.90;;;;;;5006248;28;20134;-68
2021/06/26 02:54:18;;;;;;;3.10;2.85;;;17.40;99.90;;;;;;5007846;28;20060;-65
2021/06/26 02:56:45;;;;;;;3.13;2.92;;;17.40;99.90;;;;;;5007888;28;20164;-68
2021/06/26 02:59:12;;;;;;;3.00;2.80;;;17.40;99.90;;;;;;5008216;28;20103;-67
2021/06/26 03:01:39;;;;;;;3.53;3.25;;;17.40;99.90;;;;;;5009456;28;20136;-67
2021/06/26 03:04:06;;;;;;;2.83;2.63;;;17.50;99.90;;;;;;5010244;28;20737;-68
2021/06/26 03:06:33;;;;;;;3.53;2.63;;;17.40;99.90;;;;;;5010343;28;20049;-67
2021/06/26 03:08:59;;;;;;;3.72;3.42;;;17.50;99.90;;;;;;5011899;28;20092;-67
2021/06/26 03:11:26;;;;;;;3.13;2.90;;;17.50;99.90;;;;;;5010620;28;20049;-69
2021/06/26 03:13:53;;;;;;;2.92;2.72;;;17.50;99.90;;;;;;5009833;28;20576;-67
2021/06/26 03:16:20;;;;;;;3.17;2.97;;;17.60;99.90;;;;;;5011164;28;20061;-69
2021/06/26 03:18:47;;;;;;;2.80;2.60;;;17.60;99.90;;;;;;5011757;28;20054;-68
2021/06/26 03:21:14;;;;;;;3.03;2.83;;;17.60;99.90;;;;;;5011176;28;20049;-69
2021/06/26 03:23:42;;;;;;;3.75;3.40;;;17.60;99.90;;;;;;5011573;28;20050;-68
2021/06/26 03:26:09;;;;;;;3.38;3.08;;;17.60;99.90;;;;;;5009730;28;20061;-70
2021/06/26 03:28:37;;;;;;;2.60;2.40;;;17.70;99.90;;;;;;5012901;28;20088;-66
2021/06/26 03:31:07;;;;;;;2.65;2.45;;;17.70;99.90;;;;;;5011488;28;20144;-67
2021/06/26 03:33:34;;;;;;;;;;;17.70;99.90;;;;;;5012650;28;20061;-66
2021/06/26 03:36:02;;;;;;;3.30;3.10;;;17.70;99.90;;;;;;5008656;28;19979;-68
2021/06/26 03:38:29;;;;;;;3.92;3.63;;;17.80;99.90;;;;;;5026291;28;20096;-66
2021/06/26 03:40:56;;;;;;;3.25;3.05;;;17.80;99.90;;;;;;5010403;28;20160;-68
2021/06/26 03:43:22;;;;;;;2.97;2.78;;;17.80;99.90;;;;;;5010603;28;20887;-68
2021/06/26 03:45:49;;;;;;;2.90;2.70;;;17.80;99.90;;;;;;5008771;28;20057;-68
2021/06/26 03:48:17;;;;;;;2.50;2.30;;;17.80;99.90;;;;;;5010116;28;20115;-70
2021/06/26 03:50:44;;;;;;;3.15;2.85;;;17.90;99.90;;;;;;5009992;28;20049;-66
2021/06/26 03:53:11;;;;;;;2.70;2.50;;;17.90;99.90;;;;;;5010243;28;20107;-68
2021/06/26 03:55:38;;;;;;;3.55;2.35;;;17.90;99.90;;;;;;5010011;28;20134;-68
2021/06/26 03:58:05;;;;;;;3.25;2.97;;;17.90;99.90;;;;;;5008279;28;20062;-68
2021/06/26 04:00:32;;;;;;;2.30;2.13;;;17.90;99.90;;;;;;5011513;28;20041;-66
2021/06/26 04:03:00;;;;;;;3.92;2.25;;;17.90;99.90;;;;;;5011101;28;20134;-69
2021/06/26 04:05:27;;;;;;;2.72;2.53;;;17.90;99.90;;;;;;5010536;28;20053;-67
2021/06/26 04:07:54;;;;;;;3.22;2.85;;;17.90;99.90;;;;;;5007645;28;20535;-67
2021/06/26 04:10:21;;;;;;;2.85;2.65;;;17.90;99.90;;;;;;5008817;28;20116;-69
2021/06/26 04:12:48;;;;;;;3.53;2.67;;;17.80;99.90;;;;;;5008980;28;20060;-69
2021/06/26 04:15:15;;;;;;;3.17;2.88;;;17.80;99.90;;;;;;5009587;28;20045;-69
2021/06/26 04:17:42;;;;;;;2.45;2.25;;;17.80;99.90;;;;;;5010270;28;20064;-68
2021/06/26 04:20:09;;;;;;;3.25;3.05;;;17.80;99.90;;;;;;5007486;28;20774;-66
2021/06/26 04:22:36;;;;;;;3.22;2.65;;;17.80;99.90;;;;;;5010360;28;20057;-69
2021/06/26 04:25:04;;;;;;;1.90;1.80;;;17.90;99.90;;;;;;5009442;28;20084;-67
2021/06/26 04:27:31;;;;;;;3.00;2.80;;;17.90;99.90;;;;;;5010533;28;20140;-70
2021/06/26 04:29:59;;;;;;;3.13;2.92;;;17.90;99.90;;;;;;5007786;28;20045;-67
2021/06/26 04:32:27;;;;;;;3.55;3.25;;;17.90;99.90;;;;;;5010208;28;20057;-69
2021/06/26 04:34:54;;;;;;;3.67;3.38;;;17.90;99.90;;;;;;5009000;28;20097;-68
2021/06/26 04:37:22;;;;;;;4.80;4.40;;;17.90;99.90;;;;;;5010427;28;20096;-68
2021/06/26 04:39:49;;;;;;;4.55;3.58;;;17.90;99.90;;;;;;5006307;28;20180;-69
2021/06/26 04:42:16;;;;;;;5.03;4.63;;;18.00;99.90;;;;;;5010138;28;20770;-65
2021/06/26 04:44:43;;;;;;;6.65;4.45;;;17.90;99.90;;;;;;5008037;28;20868;-67
2021/06/26 04:47:09;;;;;;;4.72;4.32;;;17.90;99.90;;;;;;5009069;28;20158;-66
2021/06/26 04:49:37;;;;;;;5.13;4.72;;;17.90;99.90;;;;;;5007128;28;20176;-66
2021/06/26 04:52:04;;;;;;;4.70;4.30;;;18.00;99.90;;;;;;5006841;28;20049;-66
2021/06/26 04:54:31;;;;;;;4.35;4.05;;;18.00;99.90;;;;;;5007424;28;20033;-67
2021/06/26 04:56:58;;;;;;;4.80;4.40;;;18.00;99.90;;;;;;5007365;28;20050;-69
2021/06/26 04:59:26;;;;;;;4.18;3.88;;;18.10;99.90;;;;;;5008590;28;20144;-70
2021/06/26 05:01:53;;;;;;;5.05;4.18;;;18.10;99.90;;;;;;5005706;28;20200;-66
2021/06/26 05:04:21;;;;;;;5.07;4.68;;;18.20;99.90;;;;;;5008210;28;20056;-68
2021/06/26 05:06:48;;;;;;;3.97;3.67;;;18.20;99.90;;;;;;5008355;28;20057;-69
2021/06/26 05:09:15;;;;;;;4.03;3.72;;;18.30;99.90;;;;;;5005954;28;20054;-71
2021/06/26 05:11:42;;;;;;;6.43;3.85;;;18.30;99.90;;;;;;5007604;28;20099;-70
2021/06/26 05:14:10;;;;;;;4.22;3.88;;;18.40;99.90;;;;;;5006502;28;20761;-69
2021/06/26 05:16:41;;;;;;;4.05;3.72;;;18.30;99.90;;;;;;5007387;28;20087;-66
2021/06/26 05:19:09;;;;;;;4.30;4.00;;;18.40;99.90;;;;;;5009539;28;20531;-70
2021/06/26 05:21:37;;;;;;;3.45;3.15;;;18.40;99.90;;;;;;5007456;28;20150;-69
2021/06/26 05:24:04;;;;;;;4.97;3.30;;;18.50;99.90;;;;;;5002524;28;20134;-70
2021/06/26 05:26:31;;;;;;;4.93;4.50;;;18.50;99.90;;;;;;5009297;28;20142;-69
2021/06/26 05:28:58;;;;;;;3.50;3.20;;;18.60;99.90;;;;;;5008967;28;20462;-69
2021/06/26 05:31:25;;;;;;;4.35;3.95;;;18.50;99.90;;;;;;5007109;28;20073;-70
2021/06/26 05:33:52;;;;;;;4.40;4.03;;;18.50;99.90;;;;;;5007177;28;20756;-69
2021/06/26 05:36:19;;;;;;;4.55;4.15;;;18.50;99.90;;;;;;5007493;28;20053;-69
2021/06/26 05:38:46;;;;;;;6.05;3.55;;;18.60;99.90;;;;;;5008454;28;20046;-68
2021/06/26 05:41:13;;;;;;;3.70;3.40;;;18.50;99.90;;;;;;5008512;28;20104;-67
2021/06/26 05:43:40;;;;;;;4.05;3.75;;;18.50;99.90;;;;;;5008691;28;20049;-69
2021/06/26 05:46:07;;;;;;;3.42;3.13;;;18.60;99.90;;;;;;5007598;28;20115;-70
2021/06/26 05:48:34;;;;;;;4.63;3.28;;;18.60;99.90;;;;;;5008100;28;20523;-67
2021/06/26 05:51:01;;;;;;;5.00;4.60;;;18.60;99.90;;;;;;5007794;28;20138;-68
2021/06/26 05:53:28;;;;;;;4.43;4.13;;;18.50;99.90;;;;;;5006424;28;20041;-67
2021/06/26 05:55:59;;;;;;;4.38;3.92;;;18.60;99.90;;;;;;5005636;28;20103;-69
2021/06/26 05:58:32;;;;;;;5.18;4.78;;;18.50;99.90;;;;;;5008828;28;20399;-69
2021/06/26 06:01:00;;;;;;;3.72;3.53;;;18.60;99.90;;;;;;5007121;28;20146;-69
2021/06/26 06:03:27;;;;;;;4.95;4.55;;;18.60;99.90;;;;;;5008849;28;20146;-67
2021/06/26 06:06:06;;;;;;;3.95;3.55;;;18.50;99.90;;;;;;1676278;28;10023407;-67
2021/06/26 06:08:33;;;;;;;6.95;4.78;;;18.50;99.90;;;;;;3970627;28;10001953;-70
2021/06/26 06:11:00;;;;;;;4.40;4.05;;;18.50;99.90;;;;;;5006124;28;20056;-67
2021/06/26 06:13:27;;;;;;;3.90;3.53;;;18.60;99.90;;;;;;5006710;28;20607;-69
2021/06/26 06:15:54;;;;;;;5.40;4.32;;;18.60;99.90;;;;;;5004897;28;20073;-71
2021/06/26 06:18:22;;;;;;;4.38;3.80;;;18.50;99.90;;;;;;5008229;28;20088;-69
2021/06/26 06:20:49;;;;;;;3.90;3.60;;;18.40;99.90;;;;;;5008004;28;20057;-67
2021/06/26 06:23:16;;;;;;;3.75;3.20;;;18.40;99.90;;;;;;5006768;28;20055;-67
2021/06/26 06:25:43;;;;;;;4.60;3.67;;;18.40;99.90;;;;;;5007583;28;20581;-67
2021/06/26 06:28:10;;;;;;;3.92;3.63;;;18.40;99.90;;;;;;5004859;28;20214;-70
2021/06/26 06:30:37;;;;;;;6.25;3.60;;;18.40;99.90;;;;;;5008264;28;20135;-67
2021/06/26 06:33:05;;;;;;;4.32;3.92;;;18.40;99.90;;;;;;5006162;28;20048;-69
2021/06/26 06:35:34;;;;;;;2.67;2.47;;;18.30;99.90;;;;;;5007195;28;20507;-69
2021/06/26 06:38:02;;;;;;;3.22;2.92;;;18.30;99.90;;;;;;5004785;28;20046;-69
2021/06/26 06:40:29;;;;;;;3.65;2.55;;;18.30;99.90;;;;;;5008274;28;20065;-70
2021/06/26 06:42:56;;;;;;;4.40;3.00;;;18.20;99.90;;;;;;5006539;28;20065;-69
2021/06/26 06:45:23;;;;;;;3.70;3.40;;;18.30;99.90;;;;;;5008604;28;20127;-67
2021/06/26 06:47:50;;;;;;;2.70;2.50;;;18.30;99.90;;;;;;5005727;28;20056;-69
2021/06/26 06:50:17;;;;;;;2.80;2.60;;;18.30;99.90;;;;;;5008237;28;20126;-67
2021/06/26 06:52:44;;;;;;;3.50;3.20;;;18.40;99.90;;;;;;5005376;28;20057;-70
2021/06/26 06:55:11;;;;;;;3.17;2.88;;;18.30;99.90;;;;;;5006926;28;20050;-69
2021/06/26 06:57:38;;;;;;;4.72;2.65;;;18.30;99.90;;;;;;5006413;28;20049;-69
2021/06/26 07:00:08;;;;;;;2.72;2.53;;;18.30;99.90;;;;;;5006080;28;20199;-71
2021/06/26 07:02:39;;;;;;;3.75;3.45;;;18.30;99.90;;;;;;5004986;28;20046;-66
2021/06/26 07:05:06;;;;;;;2.78;2.58;;;18.30;99.90;;;;;;5006789;28;20384;-69
2021/06/26 07:07:33;;;;;;;2.40;2.17;;;18.40;99.90;;;;;;5006424;28;20061;-70
2021/06/26 07:10:00;;;;;;;2.42;2.20;;;18.40;99.90;;;;;;5004881;28;20057;-69
2021/06/26 07:12:27;;;;;;;2.45;2.00;;;18.50;99.90;;;;;;5007488;28;20057;-69
2021/06/26 07:14:54;;;;;;;2.75;2.50;;;18.60;99.90;;;;;;5007320;28;20061;-70
2021/06/26 07:17:21;;;;;;;2.22;1.90;;;18.60;99.90;;;;;;5004888;28;20143;-66
2021/06/26 07:19:48;;;;;;;2.63;2.42;;;18.70;99.90;;;;;;5007502;28;20385;-67
2021/06/26 07:22:15;;;;;;;2.35;2.15;;;18.70;99.90;;;;;;5003207;28;20174;-67
2021/06/26 07:24:42;;;;;;;2.00;1.90;;;18.80;99.90;;;;;;5007452;28;20057;-69
2021/06/26 07:27:10;;;;;;;2.67;2.03;;;18.80;99.90;;;;;;5005733;28;20049;-69
2021/06/26 07:29:37;;;;;;;3.17;2.85;;;18.90;99.90;;;;;;5007583;28;20049;-69
2021/06/26 07:32:04;;;;;;;3.85;2.25;;;18.90;99.90;;;;;;5003476;28;20100;-69
2021/06/26 07:34:31;;;;;;;2.92;2.40;;;18.90;99.90;;;;;;5007199;28;20084;-69
2021/06/26 07:36:58;;;;;;;3.00;2.70;;;19.00;99.90;;;;;;5003347;28;20047;-67
2021/06/26 07:39:25;;;;;;;3.03;2.83;;;19.00;99.90;;;;;;5006771;28;20317;-68
2021/06/26 07:41:52;;;;;;;2.40;1.98;;;19.00;99.90;;;;;;5004279;28;20046;-65
2021/06/26 07:44:22;;;;;;;2.40;2.20;;;19.00;99.90;;;;;;5006313;28;20130;-67
2021/06/26 07:46:49;;;;;;;3.65;2.33;;;18.90;99.90;;;;;;5006903;28;20801;-69
2021/06/26 07:49:16;;;;;;;2.83;2.63;;;18.90;99.90;;;;;;5012214;28;20676;-69
2021/06/26 07:51:43;;;;;;;2.92;2.65;;;19.00;99.90;;;;;;5008998;28;20073;-70
2021/06/26 07:54:10;;;;;;;3.20;2.90;;;18.90;99.90;;;;;;5009002;28;20127;-69
2021/06/26 07:56:37;;;;;;;2.60;2.40;;;19.00;99.90;;;;;;5009429;28;20050;-67
2021/06/26 07:59:04;;;;;;;3.88;2.67;;;19.00;99.90;;;;;;5009941;28;20133;-69
2021/06/26 08:01:31;;;;;;;2.60;2.40;;;19.20;99.90;;;;;;5008542;28;20429;-68
2021/06/26 08:03:58;;;;;;;2.47;2.30;;;19.40;99.90;;;;;;5009455;28;20053;-68
2021/06/26 08:06:25;;;;;;;2.25;2.13;;;19.60;99.90;;;;;;5008008;28;20591;-68
2021/06/26 08:08:52;;;;;;;1.75;1.60;;;19.70;99.90;;;;;;5010741;28;20136;-66
2021/06/26 08:11:20;;;;;;;2.85;2.65;;;19.80;99.90;;;;;;5009426;28;20073;-68
2021/06/26 08:13:48;;;;;;;2.63;2.22;;;19.90;99.90;;;;;;5008816;28;20184;-66
2021/06/26 08:16:15;;;;;;;4.43;1.85;;;20.00;99.90;;;;;;5007735;28;20092;-67
2021/06/26 08:18:42;;;;;;;2.42;2.22;;;20.10;99.90;;;;;;5010717;28;20072;-66
2021/06/26 08:21:09;;;;;;;3.83;2.13;;;20.20;99.90;;;;;;5007038;28;20475;-70
2021/06/26 08:23:36;;;;;;;1.75;1.60;;;20.30;99.90;;;;;;5010223;28;20099;-70
2021/06/26 08:26:03;;;;;;;1.50;1.33;;;20.30;99.90;;;;;;5006847;28;20150;-66
2021/06/26 08:28:30;;;;;;;2.85;1.77;;;20.20;99.90;;;;;;5010844;28;20111;-66
2021/06/26 08:30:57;;;;;;;2.10;1.90;;;20.20;99.90;;;;;;5008227;28;20085;-69
2021/06/26 08:33:24;;;;;;;1.60;1.50;;;20.00;99.90;;;;;;5010010;28;20045;-70
2021/06/26 08:35:51;;;;;;;3.00;2.33;;;19.70;99.90;;;;;;5005901;28;20182;-66
2021/06/26 08:38:18;;;;;;;3.78;2.58;;;19.70;99.90;;;;;;5009665;28;20069;-70
2021/06/26 08:40:46;;;;;;;3.17;1.98;;;19.70;99.90;;;;;;5008326;28;20119;-69
2021/06/26 08:43:13;;;;;;;2.50;2.30;;;19.50;99.90;;;;;;5010295;28;20154;-66
2021/06/26 08:45:40;;;;;;;2.50;2.28;;;19.60;99.90;;;;;;5007615;28;20061;-67
2021/06/26 08:48:07;;;;;;;2.80;2.60;;;19.50;99.90;;;;;;5006240;28;21034;-68
2021/06/26 08:50:34;;;;;;;3.10;2.42;;;19.60;99.90;;;;;;5008722;28;20168;-69
2021/06/26 08:53:01;;;;;;;3.40;3.00;;;19.50;99.90;;;;;;5008612;28;20149;-68
2021/06/26 08:55:28;;;;;;;3.50;2.83;;;19.40;99.90;;;;;;5009270;28;20132;-68
2021/06/26 08:57:56;;;;;;;2.65;2.45;;;19.40;99.90;;;;;;5007712;28;20143;-69
2021/06/26 09:00:25;;;;;;;2.45;2.08;;;19.30;99.90;;;;;;5007747;28;20049;-66
2021/06/26 09:03:12;;;;;;;2.08;1.88;;;19.40;99.90;;;;;;5008251;28;20069;-68
2021/06/26 09:05:41;;;;;;;1.70;1.60;;;19.50;99.90;;;;;;5008709;28;20050;-70
2021/06/26 09:08:13;;;;;;;3.58;2.38;;;19.50;99.90;;;;;;5006305;28;21081;-68
2021/06/26 09:10:43;;;;;;;3.20;2.17;;;19.70;99.90;;;;;;5008345;28;20542;-70
2021/06/26 09:13:14;;;;;;;4.13;2.45;;;19.80;99.90;;;;;;5008671;28;20076;-69
2021/06/26 09:15:41;;;;;;;2.60;2.40;;;19.90;99.90;;;;;;5009669;28;20053;-69
2021/06/26 09:18:20;;;;;;;3.95;2.35;;;19.80;99.90;;;;;;5005732;28;20052;-67
2021/06/26 09:20:54;;;;;;;2.50;2.30;;;19.60;99.90;;;;;;5010418;28;20053;-68
2021/06/26 09:23:30;;;;;;;2.30;2.15;;;19.50;99.90;;;;;;5005508;28;20215;-68
2021/06/26 09:26:11;;;;;;;5.20;2.28;;;19.50;99.90;;;;;;5006788;28;20053;-70
2021/06/26 09:28:39;;;;;;;2.28;2.13;;;19.70;99.90;;;;;;5007510;28;20454;-70
2021/06/26 09:31:21;;;;;;;3.42;2.60;;;19.70;99.90;;;;;;5006647;28;20119;-67
2021/06/26 09:33:56;;;;;;;2.17;2.00;;;19.90;99.90;;;;;;5007344;28;20045;-66
2021/06/26 09:36:31;;;;;;;3.00;2.45;;;20.00;99.90;;;;;;5004845;28;20057;-69
2021/06/26 09:39:06;;;;;;;3.58;2.05;;;19.90;99.90;;;;;;5008806;28;20064;-70
2021/06/26 09:41:34;;;;;;;2.15;1.95;;;20.00;99.90;;;;;;5007074;28;20731;-69
2021/06/26 09:44:09;;;;;;;2.53;2.33;;;20.20;99.90;;;;;;5006422;28;20443;-69
2021/06/26 09:46:50;;;;;;;2.28;2.08;;;20.10;99.90;;;;;;5005939;28;20115;-70
2021/06/26 09:49:30;;;;;;;5.53;3.45;;;20.10;99.90;;;;;;5008206;28;20076;-67
2021/06/26 09:52:04;;;;;;;5.88;2.80;;;20.00;99.90;;;;;;5003290;28;20119;-69
2021/06/26 09:54:31;;;;;;;2.58;2.38;;;20.00;99.90;;;;;;5007646;28;20046;-69
2021/06/26 09:56:58;;;;;;;2.35;2.15;;;19.80;99.90;;;;;;5006928;28;20491;-66
2021/06/26 09:59:31;;;;;;;2.35;2.15;;;19.90;99.90;;;;;;5007748;28;20049;-69
2021/06/26 10:01:58;;;;;;;3.47;3.17;;;20.00;99.90;;;;;;5006146;28;20057;-69
2021/06/26 10:04:26;;;;;;;3.55;2.13;;;20.10;99.90;;;;;;5007199;28;20585;-66
2021/06/26 10:06:54;;;;;;;4.07;2.40;;;20.10;99.90;;;;;;5006500;28;20073;-69
2021/06/26 10:09:21;;;;;;;2.95;2.75;;;20.00;99.90;;;;;;5007729;28;20061;-67
2021/06/26 10:11:48;;;;;;;2.67;2.47;;;19.90;99.90;;;;;;5005167;28;20073;-69
2021/06/26 10:14:16;;;;;;;3.05;2.03;;;19.80;99.90;;;;;;5004377;28;20045;-68
2021/06/26 10:16:43;;;;;;;2.90;2.70;;;19.80;99.90;;;;;;5008284;28;20076;-66
2021/06/26 10:19:12;;;;;;;3.00;2.70;;;19.90;99.90;;;;;;5007548;28;20045;-67
2021/06/26 10:21:42;;;;;;;5.45;2.63;;;19.90;99.90;;;;;;5007098;28;20060;-69
2021/06/26 10:24:15;;;;;;;2.33;2.22;;;20.10;99.90;;;;;;5005794;28;20045;-70
2021/06/26 10:26:44;;;;;;;3.45;2.78;;;20.20;99.90;;;;;;5007359;28;20053;-68
2021/06/26 10:29:13;;;;;;;3.90;3.60;;;20.30;99.90;;;;;;5006787;28;20057;-68
2021/06/26 10:31:46;;;;;;;3.92;2.72;;;20.30;99.90;;;;;;5007135;28;20108;-70
2021/06/26 10:34:19;;;;;;;2.60;2.40;;;20.40;99.90;;;;;;5003799;28;20411;-67
2021/06/26 10:36:51;;;;;;;3.08;2.88;;;20.60;99.90;;;;;;5006732;28;20756;-67
2021/06/26 10:39:24;;;;;;;2.95;2.75;;;20.60;99.90;;;;;;5004655;28;20060;-69
2021/06/26 10:42:05;;;;;;;3.22;2.92;;;20.70;99.90;;;;;;5005135;28;20057;-68
2021/06/26 10:44:49;;;;;;;3.28;3.03;;;20.50;99.90;;;;;;5004636;28;20195;-69
2021/06/26 10:47:40;;;;;;;3.15;2.85;;;20.70;99.90;;;;;;5021208;28;20049;-70
2021/06/26 10:50:08;;;;;;;5.10;3.20;;;21.10;99.90;;;;;;5004111;28;21446;-67
2021/06/26 10:52:55;;;;;;;3.03;2.72;;;21.20;99.90;;;;;;5003508;28;20123;-67
2021/06/26 10:55:57;;;;;;;3.78;2.78;;;21.30;99.90;;;;;;5005233;28;20514;-66
2021/06/26 10:58:31;;;;;;;3.60;3.33;;;21.50;99.90;;;;;;5004166;28;20467;-67
2021/06/26 11:00:59;;;;;;;3.40;2.15;;;21.40;99.90;;;;;;5007559;28;20057;-67
2021/06/26 11:03:32;;;;;;;3.25;2.42;;;21.30;99.90;;;;;;5005378;28;20054;-67
2021/06/26 11:06:00;;;;;;;3.47;2.88;;;21.50;99.90;;;;;;5006226;28;20042;-70
2021/06/26 11:08:26;;;;;;;4.93;3.28;;;21.40;99.90;;;;;;5005469;28;20135;-66
2021/06/26 11:10:59;;;;;;;3.88;2.90;;;21.30;99.90;;;;;;5019740;28;20056;-69
2021/06/26 11:13:29;;;;;;;3.08;2.80;;;21.30;99.90;;;;;;5003474;28;20053;-70
2021/06/26 11:16:02;;;;;;;3.63;2.90;;;21.50;99.90;;;;;;5005780;28;20097;-69
2021/06/26 11:18:29;;;;;;;3.45;2.75;;;21.40;99.90;;;;;;5006147;28;20555;-67
2021/06/26 11:20:58;;;;;;;3.28;2.35;;;21.60;99.90;;;;;;5008560;28;20077;-66
2021/06/26 11:23:25;;;;;;;3.78;3.15;;;21.40;99.90;;;;;;5008928;28;20089;-67
2021/06/26 11:25:58;;;;;;;2.47;2.28;;;21.30;99.90;;;;;;5010101;28;20148;-71
2021/06/26 11:28:25;;;;;;;2.83;2.63;;;21.30;99.90;;;;;;5010613;28;20099;-68
2021/06/26 11:31:01;;;;;;;3.17;2.75;;;21.40;99.90;;;;;;5011301;28;20134;-70
2021/06/26 11:33:33;;;;;;;3.00;2.80;;;21.20;99.90;;;;;;5010926;28;20111;-70
2021/06/26 11:36:00;;;;;;;2.95;2.65;;;21.30;99.90;;;;;;5009677;28;20084;-70
2021/06/26 11:38:27;;;;;;;5.85;5.25;;;21.40;99.90;;;;;;5010732;28;20053;-67
2021/06/26 11:41:06;;;;;;;6.70;6.20;;;21.40;99.90;;;;;;5011830;28;20119;-66
2021/06/26 11:43:34;;;;;;;6.50;5.82;;;21.20;99.90;;;;;;5010224;28;20520;-67
2021/06/26 11:46:01;;;;;;;7.88;7.22;;;21.40;99.90;;;;;;5009792;28;20049;-68
2021/06/26 11:48:28;;;;;;;11.88;8.63;;;21.40;99.90;;;;;;5010794;28;20466;-69
2021/06/26 11:51:02;;;;;;;7.93;7.13;;;21.30;99.90;;;;;;5011990;28;20099;-67
2021/06/26 11:53:29;;;;;;;7.07;6.47;;;21.20;99.90;;;;;;5010690;28;20115;-69
2021/06/26 11:56:02;;;;;;;6.40;5.80;;;21.60;99.90;;;;;;5008341;28;20081;-70
2021/06/26 11:58:43;;;;;;;7.15;6.55;;;21.60;99.90;;;;;;5010077;28;20069;-68
2021/06/26 12:01:15;;;;;;;8.13;7.32;;;21.70;99.90;;;;;;5011523;28;20061;-66
2021/06/26 12:03:43;;;;;;;7.03;6.10;;;21.70;99.90;;;;;;5012089;28;20061;-70
2021/06/26 12:06:15;;;;;;;6.88;6.20;;;21.70;99.90;;;;;;5009966;28;20053;-68
2021/06/26 12:08:53;;;;;;;7.82;7.00;;;21.80;99.90;;;;;;5011025;28;20041;-67
2021/06/26 12:11:31;;;;;;;7.30;6.60;;;21.80;99.90;;;;;;5011519;28;20041;-69
2021/06/26 12:14:00;;;;;;;8.57;7.18;;;21.80;99.90;;;;;;5009130;28;20463;-66
2021/06/26 12:16:37;;;;;;;7.82;7.10;;;21.90;99.90;;;;;;5010119;28;20204;-66
2021/06/26 12:19:08;;;;;;;7.78;6.65;;;22.10;99.90;;;;;;5011050;28;20565;-70
2021/06/26 12:21:49;;;;;;;7.63;7.00;;;22.10;99.90;;;;;;5011255;28;20049;-67
2021/06/26 12:24:39;;;;;;;8.15;7.10;;;22.00;99.90;;;;;;5009016;28;20955;-67
2021/06/26 12:27:23;;;;;;;7.07;6.47;;;22.10;99.90;;;;;;5011155;28;20514;-67
2021/06/26 12:29:58;;;;;;;8.00;7.03;;;22.20;99.90;;;;;;5009665;28;20104;-66
2021/06/26 12:32:30;;;;;;;7.78;7.07;;;22.00;99.90;;;;;;5010667;28;20073;-68
2021/06/26 12:34:58;;;;;;;7.60;6.90;;;22.00;99.90;;;;;;5009242;28;20133;-68
2021/06/26 12:37:29;;;;;;;8.10;7.28;;;21.90;99.90;;;;;;5010389;28;20662;-66
2021/06/26 12:40:01;;;;;;;6.97;6.28;;;21.90;99.90;;;;;;5008330;28;20049;-66
2021/06/26 12:42:28;;;;;;;10.40;8.57;;;21.80;99.90;;;;;;5010911;28;20137;-69
2021/06/26 12:44:58;;;;;;;7.18;6.57;;;21.50;99.90;;;;;;5012298;28;20507;-66
2021/06/26 12:47:26;;;;;;;6.38;5.88;;;21.60;99.90;;;;;;5000818;28;20060;-68
2021/06/26 12:50:01;;;;;;;7.00;5.43;;;21.70;99.90;;;;;;5007120;28;20134;-70
2021/06/26 12:52:28;;;;;;;6.72;6.05;;;21.90;99.90;;;;;;5005361;28;20073;-69
2021/06/26 12:54:55;;;;;;;7.00;6.30;;;21.90;99.90;;;;;;5005056;28;20049;-68
2021/06/26 12:57:22;;;;;;;7.03;6.43;;;22.10;99.90;;;;;;5008758;28;20444;-66